createdAt,value
2023-01-08T00:00:29.559Z,99876.44
2023-01-08T00:03:18.354Z,99881.31
2023-01-08T00:06:09.162Z,99862.81
2023-01-08T00:08:59.305Z,99880.72
2023-01-08T00:11:49.214Z,99870.38
2023-01-08T00:14:37.961Z,99868.97
2023-01-08T00:17:26.637Z,99871.38
2023-01-08T00:20:16.937Z,99871.00
2023-01-08T00:23:05.646Z,99863.56
2023-01-08T00:25:55.699Z,99855.59
2023-01-08T00:28:44.437Z,99855.47
2023-01-08T00:31:33.233Z,99857.69
2023-01-08T00:34:21.815Z,99848.59
2023-01-08T00:37:10.504Z,99850.13
2023-01-08T00:39:59.170Z,99845.91
2023-01-08T00:42:49.335Z,99833.66
2023-01-08T00:45:37.948Z,99831.56
2023-01-08T00:48:26.711Z,99831.38
2023-01-08T00:51:15.393Z,99831.84
2023-01-08T00:54:04.041Z,99826.34
2023-01-08T00:56:52.600Z,99833.00
2023-01-08T00:59:42.706Z,99813.28
2023-01-08T01:02:31.319Z,99810.47
2023-01-08T01:05:20.122Z,99808.44
2023-01-08T01:08:08.681Z,99810.50
2023-01-08T01:10:57.442Z,99806.63
2023-01-08T01:13:46.067Z,99799.03
2023-01-08T01:16:36.484Z,99787.97
2023-01-08T01:19:25.218Z,99786.72
2023-01-08T01:22:13.896Z,99786.72
2023-01-08T01:25:02.657Z,99792.50
2023-01-08T01:27:51.282Z,99792.91
2023-01-08T01:30:39.914Z,99793.53
2023-01-08T01:33:29.980Z,99806.50
2023-01-08T01:36:19.730Z,99797.03
2023-01-08T01:39:08.455Z,99803.59
2023-01-08T01:41:57.100Z,99818.41
2023-01-08T01:44:47.150Z,99808.97
2023-01-08T01:47:38.653Z,99809.78
2023-01-08T01:50:31.019Z,99800.53
2023-01-08T01:53:21.331Z,99787.38
2023-01-08T01:56:10.872Z,99786.53
2023-01-08T01:58:59.505Z,99797.03
2023-01-08T02:01:48.340Z,99798.25
2023-01-08T02:04:37.151Z,99795.19
2023-01-08T02:07:31.443Z,99784.13
2023-01-08T02:10:24.086Z,99778.53
2023-01-08T02:13:16.036Z,99766.19
2023-01-08T02:16:09.780Z,99767.03
2023-01-08T02:19:00.084Z,99762.16
2023-01-08T02:22:02.794Z,99749.38
2023-01-08T02:24:57.414Z,99741.19
2023-01-08T02:27:49.390Z,99750.22
2023-01-08T02:30:38.075Z,99739.53
2023-01-08T02:33:29.500Z,99740.13
2023-01-08T02:36:34.318Z,99748.59
2023-01-08T02:39:37.517Z,99758.25
2023-01-08T02:42:30.686Z,99759.72
2023-01-08T02:45:30.238Z,99751.50
2023-01-08T02:48:23.524Z,99768.78
2023-01-08T02:51:18.581Z,99759.72
2023-01-08T02:54:13.571Z,99763.00
2023-01-08T02:57:05.822Z,99752.97
2023-01-08T02:59:54.754Z,99751.56
2023-01-08T03:02:45.177Z,99758.53
2023-01-08T03:05:34.373Z,99751.72
2023-01-08T03:08:23.289Z,99762.41
2023-01-08T03:11:13.397Z,99759.13
2023-01-08T03:14:06.267Z,99747.84
2023-01-08T03:17:00.414Z,99746.75
2023-01-08T03:19:52.195Z,99754.78
2023-01-08T03:22:42.612Z,99740.44
2023-01-08T03:25:32.271Z,99740.81
2023-01-08T03:28:24.368Z,99748.59
2023-01-08T03:31:15.870Z,99744.50
2023-01-08T03:34:05.874Z,99737.91
2023-01-08T03:36:57.639Z,99742.66
2023-01-08T03:39:49.194Z,99728.09
2023-01-08T03:42:37.859Z,99724.22
2023-01-08T03:45:27.714Z,99726.47
2023-01-08T03:48:16.612Z,99714.47
2023-01-08T03:51:05.536Z,99707.97
2023-01-08T03:53:58.660Z,99704.47
2023-01-08T03:56:47.412Z,99699.00
2023-01-08T03:59:36.117Z,99699.44
2023-01-08T04:02:24.975Z,99683.78
2023-01-08T04:05:13.709Z,99684.59
2023-01-08T04:08:02.230Z,99676.19
2023-01-08T04:10:52.207Z,99668.97
2023-01-08T04:13:40.899Z,99675.53
2023-01-08T04:16:29.519Z,99666.66
2023-01-08T04:19:18.188Z,99665.69
2023-01-08T04:22:06.772Z,99653.38
2023-01-08T04:24:55.407Z,99658.22
2023-01-08T04:27:45.386Z,99672.22
2023-01-08T04:30:33.997Z,99667.25
2023-01-08T04:33:22.642Z,99685.69
2023-01-08T04:36:11.629Z,99681.81
2023-01-08T04:39:00.196Z,99686.56
2023-01-08T04:41:48.871Z,99688.03
2023-01-08T04:44:38.936Z,99679.84
2023-01-08T04:47:27.554Z,99676.38
2023-01-08T04:50:16.234Z,99678.81
2023-01-08T04:53:04.908Z,99681.28
2023-01-08T04:55:54.321Z,99680.28
2023-01-08T04:58:42.931Z,99670.19
2023-01-08T05:01:33.077Z,99675.09
2023-01-08T05:04:21.769Z,99671.41
2023-01-08T05:07:10.371Z,99669.34
2023-01-08T05:09:58.965Z,99673.47
2023-01-08T05:12:47.514Z,99672.72
2023-01-08T05:15:36.129Z,99673.75
2023-01-08T05:18:26.217Z,99654.75
2023-01-08T05:21:14.796Z,99650.91
2023-01-08T05:24:03.456Z,99656.25
2023-01-08T05:26:52.102Z,99657.88
2023-01-08T05:29:40.665Z,99665.31
2023-01-08T05:32:29.303Z,99662.44
2023-01-08T05:35:19.396Z,99660.00
2023-01-08T05:38:08.092Z,99653.25
2023-01-08T05:40:56.717Z,99649.38
2023-01-08T05:43:45.363Z,99653.09
2023-01-08T05:46:34.071Z,99639.16
2023-01-08T05:49:23.890Z,99637.06
2023-01-08T05:52:14.068Z,99644.03
2023-01-08T05:55:02.733Z,99636.25
2023-01-08T05:57:51.332Z,99630.91
2023-01-08T06:00:40.286Z,99636.63
2023-01-08T06:03:28.934Z,99623.44
2023-01-08T06:06:18.344Z,99630.44
2023-01-08T06:09:09.054Z,99625.94
2023-01-08T06:11:58.092Z,99629.22
2023-01-08T06:14:46.661Z,99622.69
2023-01-08T06:17:36.657Z,99635.00
2023-01-08T06:20:25.368Z,99637.66
2023-01-08T06:23:13.997Z,99647.75
2023-01-08T06:26:04.928Z,99632.91
2023-01-08T06:28:53.566Z,99637.47
2023-01-08T06:31:42.279Z,99623.47
2023-01-08T06:34:30.968Z,99631.72
2023-01-08T06:37:19.560Z,99637.06
2023-01-08T06:40:09.208Z,99633.81
2023-01-08T06:43:03.235Z,99639.75
2023-01-08T06:45:55.780Z,99641.13
2023-01-08T06:48:44.486Z,99643.59
2023-01-08T06:51:33.156Z,99644.78
2023-01-08T06:54:21.896Z,99655.91
2023-01-08T06:57:11.576Z,99647.47
2023-01-08T07:00:01.522Z,99646.00
2023-01-08T07:02:50.178Z,99652.59
2023-01-08T07:05:39.027Z,99653.84
2023-01-08T07:08:27.687Z,99655.91
2023-01-08T07:11:17.551Z,99663.34
2023-01-08T07:14:06.202Z,99651.47
2023-01-08T07:16:56.270Z,99660.81
2023-01-08T07:19:44.961Z,99656.75
2023-01-08T07:22:33.526Z,99662.91
2023-01-08T07:25:22.172Z,99659.63
2023-01-08T07:28:13.328Z,99666.16
2023-01-08T07:31:05.032Z,99660.06
2023-01-08T07:33:55.055Z,99662.16
2023-01-08T07:36:43.754Z,99662.16
2023-01-08T07:39:32.813Z,99655.16
2023-01-08T07:42:22.729Z,99653.50
2023-01-08T07:45:12.078Z,99658.03
2023-01-08T07:48:00.876Z,99644.50
2023-01-08T07:50:50.919Z,99632.81
2023-01-08T07:53:39.608Z,99639.63
2023-01-08T07:56:30.698Z,99638.81
2023-01-08T07:59:19.468Z,99638.81
2023-01-08T08:02:08.713Z,99638.81
2023-01-08T08:04:57.423Z,99637.19
2023-01-08T08:07:47.520Z,99637.19
2023-01-08T08:10:36.257Z,99635.97
2023-01-08T08:13:24.840Z,99646.97
2023-01-08T08:16:13.856Z,99639.22
2023-01-08T08:19:02.655Z,99631.84
2023-01-08T08:21:51.337Z,99630.22
2023-01-08T08:24:41.387Z,99626.13
2023-01-08T08:27:30.059Z,99627.94
2023-01-08T08:30:18.653Z,99630.22
2023-01-08T08:33:11.151Z,99616.84
2023-01-08T08:36:00.070Z,99612.06
2023-01-08T08:38:48.732Z,99612.84
2023-01-08T08:41:38.945Z,99608.28
2023-01-08T08:44:27.573Z,99597.94
2023-01-08T08:47:16.338Z,99596.66
2023-01-08T08:50:08.752Z,99590.06
2023-01-08T08:53:01.400Z,99589.94
2023-01-08T08:55:50.057Z,99589.69
2023-01-08T08:58:41.692Z,99590.72
2023-01-08T09:01:31.401Z,99595.16
2023-01-08T09:04:20.176Z,99590.44
2023-01-08T09:07:08.823Z,99592.78
2023-01-08T09:09:57.448Z,99587.44
2023-01-08T09:12:46.071Z,99587.25
2023-01-08T09:15:36.237Z,99572.66
2023-01-08T09:18:24.891Z,99577.91
2023-01-08T09:21:13.463Z,99578.69
2023-01-08T09:24:02.089Z,99573.81
2023-01-08T09:26:50.697Z,99572.69
2023-01-08T09:29:39.427Z,99559.72
2023-01-08T09:32:29.524Z,99561.94
2023-01-08T09:35:18.278Z,99555.22
2023-01-08T09:38:06.887Z,99556.25
2023-01-08T09:40:58.765Z,99554.03
2023-01-08T09:43:49.547Z,99561.59
2023-01-08T09:46:38.343Z,99556.59
2023-01-08T09:49:33.496Z,99564.00
2023-01-08T09:52:22.216Z,99568.13
2023-01-08T09:55:14.520Z,99548.84
2023-01-08T09:58:03.599Z,99551.31
2023-01-08T10:00:52.799Z,99551.34
2023-01-08T10:03:43.484Z,99552.44
2023-01-08T10:06:33.953Z,99547.75
2023-01-08T10:09:26.891Z,99559.66
2023-01-08T10:12:15.867Z,99556.34
2023-01-08T10:15:07.126Z,99546.44
2023-01-08T10:18:03.860Z,99547.31
2023-01-08T10:20:54.632Z,99537.03
2023-01-08T10:23:55.235Z,99536.19
2023-01-08T10:26:47.829Z,99543.56
2023-01-08T10:29:36.996Z,99542.31
2023-01-08T10:32:30.145Z,99537.63
2023-01-08T10:35:21.777Z,99531.06
2023-01-08T10:38:25.897Z,99517.28
2023-01-08T10:41:16.661Z,99519.75
2023-01-08T10:44:06.995Z,99511.94
2023-01-08T10:46:57.656Z,99519.25
2023-01-08T10:49:47.043Z,99506.50
2023-01-08T10:52:36.739Z,99500.97
2023-01-08T10:55:28.272Z,99502.34
2023-01-08T10:58:18.300Z,99491.63
2023-01-08T11:01:14.491Z,99483.41
2023-01-08T11:04:05.289Z,99480.91
2023-01-08T11:06:59.623Z,99494.09
2023-01-08T11:09:50.158Z,99483.63
2023-01-08T11:12:41.049Z,99481.78
2023-01-08T11:15:36.436Z,99485.00
2023-01-08T11:18:28.505Z,99484.44
2023-01-08T11:21:22.935Z,99489.63
2023-01-08T11:24:21.120Z,99480.09
2023-01-08T11:27:14.059Z,99485.03
2023-01-08T11:30:06.915Z,99489.91
2023-01-08T11:33:02.709Z,99495.97
2023-01-08T11:35:55.099Z,99491.66
2023-01-08T11:38:43.701Z,99499.41
2023-01-08T11:41:46.136Z,99484.78
2023-01-08T11:44:41.882Z,99476.25
2023-01-08T11:47:42.069Z,99471.81
2023-01-08T11:50:37.220Z,99455.09
2023-01-08T11:53:31.423Z,99451.69
2023-01-08T11:56:22.798Z,99442.88
2023-01-08T11:59:18.432Z,99436.41
2023-01-08T12:02:18.427Z,99430.94
2023-01-08T12:05:27.421Z,99434.63
2023-01-08T12:08:23.416Z,99431.13
2023-01-08T12:11:17.110Z,99426.84
2023-01-08T12:14:19.731Z,99433.56
2023-01-08T12:17:34.210Z,99419.25
2023-01-08T12:20:30.366Z,99429.16
2023-01-08T12:23:28.778Z,99423.88
2023-01-08T12:26:21.823Z,99424.34
2023-01-08T12:29:31.486Z,99410.84
2023-01-08T12:32:27.707Z,99403.69
2023-01-08T12:35:19.222Z,99400.44
2023-01-08T12:38:11.479Z,99412.06
2023-01-08T12:41:05.681Z,99419.00
2023-01-08T12:43:57.513Z,99419.31
2023-01-08T12:46:47.109Z,99432.69
2023-01-08T12:49:40.621Z,99411.06
2023-01-08T12:52:36.656Z,99407.78
2023-01-08T12:55:35.686Z,99397.78
2023-01-08T12:58:39.007Z,99391.97
2023-01-08T13:01:34.602Z,99385.47
2023-01-08T13:04:23.294Z,99385.81
2023-01-08T13:07:14.475Z,99393.28
2023-01-08T13:10:05.429Z,99391.34
2023-01-08T13:12:55.489Z,99393.16
2023-01-08T13:15:45.761Z,99394.63
2023-01-08T13:18:34.517Z,99385.00
2023-01-08T13:21:31.793Z,99384.88
2023-01-08T13:24:29.513Z,99383.00
2023-01-08T13:27:30.471Z,99367.28
2023-01-08T13:30:40.602Z,99368.91
2023-01-08T13:33:41.715Z,99362.66
2023-01-08T13:36:32.067Z,99355.31
2023-01-08T13:39:24.480Z,99364.53
2023-01-08T13:42:25.251Z,99375.09
2023-01-08T13:45:14.900Z,99377.97
2023-01-08T13:48:03.693Z,99362.63
2023-01-08T13:50:54.234Z,99365.88
2023-01-08T13:53:43.718Z,99359.50
2023-01-08T13:56:33.082Z,99355.66
2023-01-08T13:59:38.785Z,99347.66
2023-01-08T14:02:30.939Z,99343.09
2023-01-08T14:05:30.777Z,99335.69
2023-01-08T14:08:27.154Z,99338.84
2023-01-08T14:11:15.793Z,99340.00
2023-01-08T14:14:04.749Z,99339.69
2023-01-08T14:16:55.556Z,99330.97
2023-01-08T14:19:44.643Z,99335.03
2023-01-08T14:22:35.942Z,99337.00
2023-01-08T14:25:26.096Z,99338.53
2023-01-08T14:28:18.581Z,99344.72
2023-01-08T14:31:07.338Z,99344.63
2023-01-08T14:33:57.114Z,99349.22
2023-01-08T14:36:46.362Z,99351.78
2023-01-08T14:39:38.301Z,99352.66
2023-01-08T14:42:44.010Z,99353.94
2023-01-08T14:45:34.514Z,99343.34
2023-01-08T14:48:25.770Z,99337.66
2023-01-08T14:51:17.518Z,99336.72
2023-01-08T14:54:08.474Z,99329.38
2023-01-08T14:57:00.891Z,99331.59
2023-01-08T14:59:56.023Z,99328.91
2023-01-08T15:02:44.799Z,99332.16
2023-01-08T15:05:34.943Z,99328.44
2023-01-08T15:08:26.120Z,99323.91
2023-01-08T15:11:23.604Z,99334.50
2023-01-08T15:14:16.565Z,99337.06
2023-01-08T15:17:11.323Z,99335.56
2023-01-08T15:20:01.949Z,99333.94
2023-01-08T15:22:50.676Z,99335.31
2023-01-08T15:25:39.400Z,99339.94
2023-01-08T15:28:28.255Z,99341.63
2023-01-08T15:31:25.976Z,99344.75
2023-01-08T15:34:16.360Z,99339.94
2023-01-08T15:37:05.380Z,99353.34
2023-01-08T15:39:53.989Z,99351.69
2023-01-08T15:43:00.146Z,99365.31
2023-01-08T15:45:50.268Z,99350.56
2023-01-08T15:48:38.953Z,99351.00
2023-01-08T15:51:30.203Z,99345.88
2023-01-08T15:54:19.163Z,99349.47
2023-01-08T15:57:07.798Z,99353.22
2023-01-08T15:59:56.407Z,99344.59
2023-01-08T16:02:47.072Z,99344.69
2023-01-08T16:05:36.529Z,99351.94
2023-01-08T16:08:26.674Z,99354.50
2023-01-08T16:11:15.650Z,99352.72
2023-01-08T16:14:04.400Z,99339.13
2023-01-08T16:16:53.038Z,99334.91
2023-01-08T16:19:41.663Z,99332.03
2023-01-08T16:22:30.302Z,99337.97
2023-01-08T16:25:20.411Z,99330.41
2023-01-08T16:28:09.012Z,99332.63
2023-01-08T16:30:57.691Z,99335.06
2023-01-08T16:33:46.438Z,99336.69
2023-01-08T16:36:35.927Z,99338.28
2023-01-08T16:39:24.587Z,99337.41
2023-01-08T16:42:14.693Z,99346.69
2023-01-08T16:45:03.466Z,99341.22
2023-01-08T16:47:52.226Z,99333.66
2023-01-08T16:50:40.893Z,99338.06
2023-01-08T16:53:29.658Z,99328.75
2023-01-08T16:56:18.265Z,99336.19
2023-01-08T16:59:18.206Z,99331.56
2023-01-08T17:02:11.439Z,99328.53
2023-01-08T17:05:00.115Z,99320.72
2023-01-08T17:07:53.051Z,99337.13
2023-01-08T17:10:41.648Z,99343.63
2023-01-08T17:13:30.300Z,99332.41
2023-01-08T17:16:21.055Z,99332.28
2023-01-08T17:19:10.147Z,99325.06
2023-01-08T17:21:58.825Z,99322.34
2023-01-08T17:24:48.858Z,99320.13
2023-01-08T17:27:37.610Z,99306.75
2023-01-08T17:30:26.343Z,99308.44
2023-01-08T17:33:16.869Z,99299.44
2023-01-08T17:36:11.437Z,99292.91
2023-01-08T17:39:01.206Z,99293.16
2023-01-08T17:42:07.412Z,99287.22
2023-01-08T17:44:57.181Z,99276.09
2023-01-08T17:47:45.837Z,99265.63
2023-01-08T17:50:35.835Z,99266.94
2023-01-08T17:53:25.126Z,99261.03
2023-01-08T17:56:14.713Z,99261.19
2023-01-08T17:59:03.514Z,99243.91
2023-01-08T18:01:54.008Z,99243.22
2023-01-08T18:04:43.305Z,99232.84
2023-01-08T18:07:35.918Z,99226.13
2023-01-08T18:10:25.096Z,99226.97
2023-01-08T18:13:14.139Z,99226.19
2023-01-08T18:16:04.135Z,99230.41
2023-01-08T18:18:53.264Z,99220.84
2023-01-08T18:21:41.827Z,99220.91
2023-01-08T18:24:31.940Z,99213.81
2023-01-08T18:27:20.517Z,99215.91
2023-01-08T18:30:10.547Z,99211.25
2023-01-08T18:32:59.092Z,99219.72
2023-01-08T18:35:48.167Z,99222.41
2023-01-08T18:38:38.110Z,99221.13
2023-01-08T18:41:45.939Z,99217.63
2023-01-08T18:44:34.670Z,99224.09
2023-01-08T18:47:23.762Z,99227.38
2023-01-08T18:50:13.150Z,99225.13
2023-01-08T18:53:03.808Z,99224.56
2023-01-08T18:55:52.430Z,99218.03
2023-01-08T18:58:42.381Z,99210.91
2023-01-08T19:01:31.533Z,99199.22
2023-01-08T19:04:20.148Z,99192.63
2023-01-08T19:07:08.800Z,99192.06
2023-01-08T19:09:57.929Z,99193.81
2023-01-08T19:12:46.686Z,99201.47
2023-01-08T19:15:37.432Z,99202.59
2023-01-08T19:18:26.104Z,99200.59
2023-01-08T19:21:17.646Z,99196.13
2023-01-08T19:24:06.851Z,99202.31
2023-01-08T19:26:55.536Z,99207.53
2023-01-08T19:29:44.179Z,99198.38
2023-01-08T19:32:34.194Z,99210.72
2023-01-08T19:35:22.829Z,99201.81
2023-01-08T19:38:11.559Z,99197.59
2023-01-08T19:41:00.831Z,99186.78
2023-01-08T19:43:48.492Z,99195.78
2023-01-08T19:46:37.889Z,99199.50
2023-01-08T19:49:27.870Z,99210.22
2023-01-08T19:52:16.581Z,99198.03
2023-01-08T19:55:06.169Z,99193.03
2023-01-08T19:57:55.613Z,99192.69
2023-01-08T20:00:44.288Z,99178.56
2023-01-08T20:03:32.986Z,99169.97
2023-01-08T20:06:24.835Z,99157.44
2023-01-08T20:09:13.431Z,99157.63
2023-01-08T20:12:02.330Z,99153.22
2023-01-08T20:14:50.887Z,99154.03
2023-01-08T20:17:42.600Z,99149.16
2023-01-08T20:20:31.263Z,99141.16
2023-01-08T20:23:21.299Z,99138.16
2023-01-08T20:26:14.100Z,99138.38
2023-01-08T20:29:02.790Z,99124.63
2023-01-08T20:31:56.734Z,99119.75
2023-01-08T20:34:45.405Z,99116.38
2023-01-08T20:37:34.587Z,99114.00
2023-01-08T20:40:24.601Z,99112.50
2023-01-08T20:43:13.253Z,99103.13
2023-01-08T20:46:01.952Z,99100.47
2023-01-08T20:48:50.666Z,99096.22
2023-01-08T20:51:44.088Z,99093.16
2023-01-08T20:54:33.014Z,99092.31
2023-01-08T20:57:23.117Z,99097.59
2023-01-08T21:00:13.182Z,99106.75
2023-01-08T21:03:01.958Z,99114.31
2023-01-08T21:05:50.546Z,99121.34
2023-01-08T21:08:39.571Z,99119.22
2023-01-08T21:11:28.484Z,99107.06
2023-01-08T21:14:19.798Z,99111.28
2023-01-08T21:17:08.523Z,99103.81
2023-01-08T21:20:00.167Z,99098.94
2023-01-08T21:22:48.879Z,99090.31
2023-01-08T21:25:37.577Z,99103.69
2023-01-08T21:28:27.031Z,99099.41
2023-01-08T21:31:19.138Z,99087.91
2023-01-08T21:34:09.436Z,99074.25
2023-01-08T21:36:58.136Z,99065.19
2023-01-08T21:39:46.751Z,99054.81
2023-01-08T21:42:52.927Z,99046.06
2023-01-08T21:45:41.815Z,99038.91
2023-01-08T21:48:31.847Z,99036.97
2023-01-08T21:51:38.265Z,99032.25
2023-01-08T21:54:26.892Z,99015.06
2023-01-08T21:57:16.647Z,99018.31
2023-01-08T22:00:05.932Z,99013.75
2023-01-08T22:02:54.528Z,99020.97
2023-01-08T22:05:44.609Z,99020.03
2023-01-08T22:08:33.554Z,99022.53
2023-01-08T22:11:22.229Z,99016.84
2023-01-08T22:14:10.832Z,99009.31
2023-01-08T22:16:59.627Z,99008.63
2023-01-08T22:19:48.356Z,98997.94
2023-01-08T22:22:38.693Z,99003.75
2023-01-08T22:25:27.426Z,98999.38
2023-01-08T22:28:15.987Z,98989.25
2023-01-08T22:31:06.932Z,98984.28
2023-01-08T22:33:55.860Z,98993.34
2023-01-08T22:36:44.530Z,98986.28
2023-01-08T22:39:34.534Z,98984.31
2023-01-08T22:42:25.059Z,98976.50
2023-01-08T22:45:13.626Z,98964.44
2023-01-08T22:48:02.341Z,98972.06
2023-01-08T22:50:51.804Z,98966.13
2023-01-08T22:53:40.574Z,98970.16
2023-01-08T22:56:30.540Z,98955.63
2023-01-08T22:59:21.139Z,98951.91
2023-01-08T23:02:09.759Z,98962.03
2023-01-08T23:04:58.443Z,98963.31
2023-01-08T23:07:47.084Z,98954.50
2023-01-08T23:10:36.169Z,98947.88
2023-01-08T23:13:26.323Z,98934.16
2023-01-08T23:16:17.562Z,98939.50
2023-01-08T23:19:06.404Z,98930.53
2023-01-08T23:21:55.323Z,98932.09
2023-01-08T23:24:43.973Z,98939.50
2023-01-08T23:27:33.470Z,98931.38
2023-01-08T23:30:23.591Z,98930.91
2023-01-08T23:33:12.213Z,98943.81
2023-01-08T23:36:00.907Z,98930.22
2023-01-08T23:38:53.767Z,98921.50
2023-01-08T23:41:42.379Z,98917.44
2023-01-08T23:44:31.002Z,98911.25
2023-01-08T23:47:21.050Z,98906.16
2023-01-08T23:50:11.180Z,98909.41
2023-01-08T23:53:00.127Z,98903.50
2023-01-08T23:55:48.740Z,98900.72
2023-01-08T23:58:37.807Z,98891.09
